createdAt,value
2023-01-12T00:00:07.146Z,100977.84
2023-01-12T00:05:16.663Z,100968.09
2023-01-12T00:10:21.447Z,100978.19
2023-01-12T00:15:44.407Z,100965.16
2023-01-12T00:20:52.238Z,100968.31
2023-01-12T00:25:59.046Z,100961.22
2023-01-12T00:31:06.774Z,100979.84
2023-01-12T00:36:15.496Z,100956.81
2023-01-12T00:41:39.376Z,100946.44
2023-01-12T00:46:43.943Z,100962.53
2023-01-12T00:51:48.513Z,100957.19
2023-01-12T00:56:53.060Z,100957.19
2023-01-12T01:01:58.581Z,100955.53
2023-01-12T01:07:04.527Z,100975.50
2023-01-12T01:12:10.472Z,100962.31
2023-01-12T01:17:15.142Z,100953.44
2023-01-12T01:22:19.800Z,100958.50
2023-01-12T01:27:26.405Z,100977.44
2023-01-12T01:32:31.055Z,100968.88
2023-01-12T01:37:36.056Z,100964.22
2023-01-12T01:42:42.546Z,100962.31
2023-01-12T01:47:55.387Z,100969.91
2023-01-12T01:53:09.116Z,100964.38
2023-01-12T01:58:30.145Z,100971.97
2023-01-12T02:03:36.881Z,100966.75
2023-01-12T02:08:48.403Z,100974.47
2023-01-12T02:14:12.123Z,100977.97
2023-01-12T02:19:16.728Z,100977.75
2023-01-12T02:24:41.765Z,100963.75
2023-01-12T02:30:10.435Z,100963.53
2023-01-12T02:35:31.954Z,100961.63
2023-01-12T02:41:06.685Z,100958.69
2023-01-12T02:46:16.494Z,100953.28
2023-01-12T02:51:30.618Z,100947.75
2023-01-12T02:56:56.179Z,100944.09
2023-01-12T03:02:16.060Z,100935.88
2023-01-12T03:07:34.437Z,100907.72
2023-01-12T03:12:41.812Z,100908.72
2023-01-12T03:17:56.546Z,100918.06
2023-01-12T03:23:30.276Z,100910.25
2023-01-12T03:28:38.806Z,100902.47
2023-01-12T03:33:45.656Z,100898.91
2023-01-12T03:39:27.218Z,100877.28
2023-01-12T03:44:44.050Z,100867.69
2023-01-12T03:50:06.120Z,100867.69
2023-01-12T03:55:17.264Z,100839.09
2023-01-12T04:00:25.025Z,100835.59
2023-01-12T04:05:30.675Z,100809.22
2023-01-12T04:10:39.070Z,100798.50
2023-01-12T04:15:46.163Z,100776.47
2023-01-12T04:20:52.397Z,100756.00
2023-01-12T04:25:57.080Z,100768.72
2023-01-12T04:31:01.920Z,100745.28
2023-01-12T04:36:07.742Z,100744.63
2023-01-12T04:41:13.081Z,100754.13
2023-01-12T04:46:18.550Z,100728.19
2023-01-12T04:51:24.069Z,100716.41
2023-01-12T04:56:30.427Z,100719.66
2023-01-12T05:01:38.136Z,100699.75
2023-01-12T05:06:43.546Z,100693.63
2023-01-12T05:11:48.858Z,100685.81
2023-01-12T05:16:54.170Z,100679.88
2023-01-12T05:22:01.726Z,100673.00
2023-01-12T05:27:06.986Z,100662.75
2023-01-12T05:32:12.291Z,100658.41
2023-01-12T05:37:17.640Z,100658.28
2023-01-12T05:42:44.581Z,100675.59
2023-01-12T05:48:03.479Z,100661.47
2023-01-12T05:53:08.843Z,100650.06
2023-01-12T05:58:13.990Z,100638.63
2023-01-12T06:03:19.677Z,100623.75
2023-01-12T06:08:27.796Z,100626.00
2023-01-12T06:13:52.162Z,100673.13
2023-01-12T06:18:58.903Z,100647.63
2023-01-12T06:24:04.449Z,100650.91
2023-01-12T06:29:09.872Z,100681.28
2023-01-12T06:34:15.820Z,100660.47
2023-01-12T06:39:21.177Z,100657.31
2023-01-12T06:44:26.562Z,100662.16
2023-01-12T06:49:31.916Z,100669.31
2023-01-12T06:54:37.336Z,100662.59
2023-01-12T06:59:47.449Z,100672.34
2023-01-12T07:04:52.768Z,100661.38
2023-01-12T07:09:58.259Z,100662.41
2023-01-12T07:15:03.094Z,100672.16
2023-01-12T07:20:10.061Z,100696.78
2023-01-12T07:25:16.794Z,100677.72
2023-01-12T07:30:26.771Z,100666.66
2023-01-12T07:35:32.207Z,100678.84
2023-01-12T07:40:53.709Z,100659.72
2023-01-12T07:46:02.565Z,100674.63
2023-01-12T07:51:08.330Z,100645.34
2023-01-12T07:56:17.447Z,100648.06
2023-01-12T08:01:22.920Z,100651.50
2023-01-12T08:06:28.553Z,100647.31
2023-01-12T08:11:33.492Z,100647.31
2023-01-12T08:16:45.166Z,100660.44
2023-01-12T08:21:59.320Z,100629.38
2023-01-12T08:27:08.735Z,100642.31
2023-01-12T08:32:17.709Z,100647.69
2023-01-12T08:37:25.980Z,100649.53
2023-01-12T08:42:32.116Z,100656.69
2023-01-12T08:47:40.016Z,100655.06
2023-01-12T08:52:45.732Z,100673.44
2023-01-12T08:57:51.120Z,100678.00
2023-01-12T09:02:56.724Z,100720.25
2023-01-12T09:08:02.158Z,100692.69
2023-01-12T09:13:08.734Z,100699.72
2023-01-12T09:18:14.384Z,100697.03
2023-01-12T09:23:21.657Z,100704.19
2023-01-12T09:28:27.483Z,100704.25
2023-01-12T09:33:34.290Z,100700.91
2023-01-12T09:38:41.361Z,100700.91
2023-01-12T09:44:04.937Z,100701.84
2023-01-12T09:49:10.284Z,100739.13
2023-01-12T09:54:15.588Z,100697.66
2023-01-12T09:59:36.533Z,100696.72
2023-01-12T10:04:42.140Z,100703.59
2023-01-12T10:09:47.848Z,100709.63
2023-01-12T10:15:20.187Z,100707.03
2023-01-12T10:20:34.680Z,100722.72
2023-01-12T10:25:44.405Z,100723.81
2023-01-12T10:30:49.639Z,100745.53
2023-01-12T10:36:18.043Z,100746.47
2023-01-12T10:41:25.156Z,100741.50
2023-01-12T10:46:34.394Z,100740.91
2023-01-12T10:51:58.468Z,100746.13
2023-01-12T10:57:09.183Z,100760.59
2023-01-12T11:02:16.867Z,100759.78
2023-01-12T11:07:27.113Z,100757.19
2023-01-12T11:12:42.477Z,100763.31
2023-01-12T11:18:05.816Z,100759.78
2023-01-12T11:23:54.469Z,100766.75
2023-01-12T11:29:09.330Z,100760.81
2023-01-12T11:34:21.363Z,100785.94
2023-01-12T11:39:28.904Z,100761.63
2023-01-12T11:44:41.549Z,100762.38
2023-01-12T11:50:14.958Z,100757.09
2023-01-12T11:55:36.671Z,100765.13
2023-01-12T12:01:14.494Z,100766.66
2023-01-12T12:06:59.866Z,100767.06
2023-01-12T12:12:40.633Z,100782.72
2023-01-12T12:18:25.178Z,100757.53
2023-01-12T12:23:41.542Z,100773.75
2023-01-12T12:29:04.904Z,100754.28
2023-01-12T12:34:46.315Z,100752.91
2023-01-12T12:39:59.064Z,100756.59
2023-01-12T12:45:19.536Z,100748.06
2023-01-12T12:50:42.629Z,100733.50
2023-01-12T12:55:51.415Z,100748.34
2023-01-12T13:00:58.258Z,100739.81
2023-01-12T13:06:35.960Z,100737.41
2023-01-12T13:11:56.751Z,100740.97
2023-01-12T13:17:08.347Z,100748.34
2023-01-12T13:22:26.653Z,100742.72
2023-01-12T13:27:53.244Z,100743.13
2023-01-12T13:33:20.764Z,100728.94
2023-01-12T13:38:40.791Z,100719.88
2023-01-12T13:43:59.891Z,100725.91
2023-01-12T13:49:21.413Z,100727.56
2023-01-12T13:54:26.482Z,100721.38
2023-01-12T13:59:34.574Z,100731.84
2023-01-12T14:04:59.510Z,100712.78
2023-01-12T14:10:36.654Z,100707.16
2023-01-12T14:16:02.078Z,100744.34
2023-01-12T14:21:27.988Z,100709.31
2023-01-12T14:26:38.619Z,100709.91
2023-01-12T14:31:54.014Z,100707.81
2023-01-12T14:36:59.568Z,100747.63
2023-01-12T14:42:28.632Z,100729.44
2023-01-12T14:47:37.263Z,100734.75
2023-01-12T14:52:44.903Z,100720.06
2023-01-12T14:57:53.857Z,100713.69
2023-01-12T15:03:02.590Z,100700.69
2023-01-12T15:08:11.798Z,100708.75
2023-01-12T15:13:39.221Z,100720.88
2023-01-12T15:19:02.128Z,100745.22
2023-01-12T15:24:45.260Z,100721.03
2023-01-12T15:29:50.151Z,100704.72
2023-01-12T15:34:57.406Z,100685.63
2023-01-12T15:40:03.046Z,100675.63
2023-01-12T15:45:20.354Z,100678.25
2023-01-12T15:50:28.587Z,100635.72
2023-01-12T15:55:38.627Z,100679.00
2023-01-12T16:00:45.446Z,100634.91
2023-01-12T16:05:50.433Z,100627.34
2023-01-12T16:11:10.737Z,100645.91
2023-01-12T16:16:21.798Z,100646.06
2023-01-12T16:21:30.159Z,100627.97
2023-01-12T16:26:37.176Z,100625.28
2023-01-12T16:31:42.247Z,100652.16
2023-01-12T16:36:47.857Z,100635.22
2023-01-12T16:41:56.457Z,100641.94
2023-01-12T16:47:02.865Z,100667.72
2023-01-12T16:52:10.101Z,100746.53
2023-01-12T16:57:19.913Z,100666.66
2023-01-12T17:02:27.118Z,100686.50
2023-01-12T17:07:32.337Z,100689.31
2023-01-12T17:12:38.368Z,100688.53
2023-01-12T17:17:58.410Z,100691.22
2023-01-12T17:23:06.276Z,100690.56
2023-01-12T17:28:11.200Z,100665.00
2023-01-12T17:33:16.741Z,100676.88
2023-01-12T17:38:21.459Z,100687.03
2023-01-12T17:43:29.011Z,100676.38
2023-01-12T17:48:33.687Z,100666.16
2023-01-12T17:53:38.294Z,100650.06
2023-01-12T17:58:43.820Z,100665.72
2023-01-12T18:03:48.554Z,100692.00
2023-01-12T18:08:54.080Z,100683.03
2023-01-12T18:13:59.974Z,100684.28
2023-01-12T18:19:08.163Z,100688.38
2023-01-12T18:24:12.800Z,100706.97
2023-01-12T18:29:17.372Z,100686.59
2023-01-12T18:34:22.005Z,100692.28
2023-01-12T18:39:26.680Z,100676.03
2023-01-12T18:44:33.114Z,100691.66
2023-01-12T18:49:37.937Z,100701.06
2023-01-12T18:55:00.477Z,100729.44
2023-01-12T19:00:13.717Z,100702.56
2023-01-12T19:05:25.296Z,100726.69
2023-01-12T19:10:31.208Z,100716.88
2023-01-12T19:15:55.508Z,100699.00
2023-01-12T19:21:22.775Z,100694.16
2023-01-12T19:26:46.658Z,100713.56
2023-01-12T19:31:52.062Z,100691.44
2023-01-12T19:36:56.713Z,100687.41
2023-01-12T19:42:19.703Z,100679.84
2023-01-12T19:47:27.590Z,100672.69
2023-01-12T19:52:32.243Z,100696.09
2023-01-12T19:57:38.410Z,100664.13
2023-01-12T20:02:45.890Z,100657.41
2023-01-12T20:08:00.148Z,100686.50
2023-01-12T20:13:04.904Z,100664.75
2023-01-12T20:18:10.029Z,100671.75
2023-01-12T20:23:16.946Z,100694.81
2023-01-12T20:28:21.614Z,100707.00
2023-01-12T20:33:29.057Z,100672.56
2023-01-12T20:38:33.592Z,100709.91
2023-01-12T20:43:39.450Z,100720.25
2023-01-12T20:48:46.024Z,100711.66
2023-01-12T20:53:51.760Z,100707.22
2023-01-12T20:58:59.690Z,100720.25
2023-01-12T21:04:05.540Z,100741.31
2023-01-12T21:09:11.422Z,100729.19
2023-01-12T21:14:17.128Z,100718.00
2023-01-12T21:19:21.994Z,100723.94
2023-01-12T21:24:27.774Z,100702.59
2023-01-12T21:29:32.433Z,100737.50
2023-01-12T21:34:37.107Z,100702.34
2023-01-12T21:39:41.714Z,100712.03
2023-01-12T21:44:47.192Z,100766.44
2023-01-12T21:49:51.953Z,100725.06
2023-01-12T21:54:56.530Z,100688.09
2023-01-12T22:00:02.718Z,100707.44
2023-01-12T22:05:17.683Z,100777.44
2023-01-12T22:10:24.133Z,100730.75
2023-01-12T22:15:31.459Z,100732.28
2023-01-12T22:20:36.057Z,100783.19
2023-01-12T22:25:41.916Z,100724.22
2023-01-12T22:30:46.601Z,100750.41
2023-01-12T22:35:52.783Z,100743.72
2023-01-12T22:40:57.423Z,100803.09
2023-01-12T22:46:03.562Z,100748.00
2023-01-12T22:51:09.040Z,100753.59
2023-01-12T22:56:14.481Z,100779.47
2023-01-12T23:01:20.759Z,100743.28
2023-01-12T23:06:27.825Z,100735.63
2023-01-12T23:11:32.550Z,100793.69
2023-01-12T23:16:38.910Z,100779.84
2023-01-12T23:21:45.837Z,100797.91
2023-01-12T23:26:50.527Z,100800.84
2023-01-12T23:31:55.486Z,100789.50
2023-01-12T23:37:01.727Z,100808.41
2023-01-12T23:42:07.523Z,100795.53
2023-01-12T23:47:12.323Z,100804.28
2023-01-12T23:52:19.868Z,100802.84
2023-01-12T23:57:28.552Z,100795.19
